MSC Sinfonia — H8XH — position and weather

sailwx.info

Track history (hours):
 
Tides and Currents Weather Stations Pressure Air Temp Water Temp Dewpoint Dewpoint Depression Visibility Wind Speed Wind Dir Waves Ship Positions

MSC Sinfonia

Last reported at 2014-Oct-02 03:30 UTC. Time now 2014-Oct-02 04:22 UTC.
Position N 41°18' E 002°11'.

Length 251 m; draft 6.8 m.

Type: Passenger vessel. MMSI: 356715971.

Date/timePositionNaut miles runAvg speedWind from/ knotsBaromVisibWave heightAir tempDewpointWater temp
2014-Oct-02 03:30N 41°18' E 002°11'1010.6
2014-Oct-02 02:33N 41°09' E 002°05'1211.6
2014-Oct-02 01:33N 40°58' E 001°58'1212.0
2014-Oct-02 00:33N 40°47' E 001°51'1212.2
2014-Oct-01 23:33N 40°36' E 001°44'1212.4
2014-Oct-01 22:33N 40°25' E 001°37'1312.6
2014-Oct-01 21:33N 40°14' E 001°29'1413.4
2014-Oct-01 20:33N 40°02' E 001°21'1413.2
2014-Oct-01 19:28N 39°50' E 001°13'14913.7
2014-Oct-01 08:33N 37°41' W 000°24'1816.5
2014-Oct-01 07:27N 37°27' W 000°39'1516.6
2014-Oct-01 06:33N 37°17' W 000°53'  
2014-Sep-26 16:20N 32°15' W 016°49'1418.2
2014-Sep-26 15:34N 32°29' W 016°51'10 9.9
2014-Sep-26 14:33N 32°39' W 016°55'0 0.0
2014-Sep-26 13:33N 32°39' W 016°55'0 0.0
2014-Sep-26 12:32N 32°39' W 016°55'0 0.0
2014-Sep-26 11:32N 32°39' W 016°55'0 0.0
2014-Sep-26 10:32N 32°39' W 016°55'0 0.0
2014-Sep-26 09:32N 32°39' W 016°55'0 0.0
2014-Sep-26 08:32N 32°39' W 016°55'0 0.0
2014-Sep-26 07:32N 32°39' W 016°55'0 0.0
2014-Sep-26 06:29N 32°39' W 016°55'3 3.1
2014-Sep-26 05:34N 32°37' W 016°52'  
2014-Sep-23 22:27N 37°24' W 000°49'1819.7
2014-Sep-23 21:33N 37°35' W 000°32'15519.0
2014-Sep-23 13:24N 39°29' E 001°42'2018.5
2014-Sep-23 12:18N 39°43' E 002°01'1418.4
2014-Sep-23 11:33N 39°52' E 002°15'1818.3
2014-Sep-23 10:33N 40°04' E 002°33'1918.6
2014-Sep-23 09:33N 40°16' E 002°51'1919.3
2014-Sep-23 08:33N 40°29' E 003°10'1919.2
2014-Sep-23 07:33N 40°42' E 003°29'17118.7
2014-Sep-22 22:24N 42°36' E 006°19'1719.6
2014-Sep-22 21:33N 42°47' E 006°36'2020.2
2014-Sep-22 20:34N 43°01' E 006°56'6519.7
2014-Sep-22 17:16N 43°44' E 008°03'1419.3
2014-Sep-22 16:33N 43°53' E 008°17'1919.1
2014-Sep-22 15:33N 44°06' E 008°37'1919.2
2014-Sep-22 14:33N 44°18' E 008°57'6 5.7
2014-Sep-22 13:25N 44°25' E 008°55'0 0.0
2014-Sep-22 12:31N 44°25' E 008°55'0 0.0
2014-Sep-22 11:31N 44°25' E 008°55'0 0.0
2014-Sep-22 10:13N 44°25' E 008°55'0 0.0
2014-Sep-22 09:13N 44°25' E 008°55'0 0.0
2014-Sep-22 08:13N 44°25' E 008°55'0 0.0
2014-Sep-22 07:31N 44°25' E 008°55'2 2.1
2014-Sep-22 06:34N 44°23' E 008°57'1413.6
2014-Sep-22 05:33N 44°11' E 009°06'2020.0
2014-Sep-22 04:33N 43°53' E 009°19'2019.6
2014-Sep-22 03:33N 43°36' E 009°31'  
Track history (hours):
 
Tides and Currents Weather Stations Pressure Air Temp Water Temp Dewpoint Dewpoint Depression Visibility Wind Speed Wind Dir Waves Ship Positions

MSC Sinfonia

Last reported at 2014-Oct-02 03:30 UTC. Time now 2014-Oct-02 04:22 UTC.
Position N 41°18' E 002°11'.

Length 251 m; draft 6.8 m.

Type: Passenger vessel. MMSI: 356715971.

Date/timePositionNaut miles runAvg speedWind from/ knotsBaromVisibWave heightAir tempDewpointWater temp
2014-Oct-02 03:30N 41°18' E 002°11'1010.6
2014-Oct-02 02:33N 41°09' E 002°05'1211.6
2014-Oct-02 01:33N 40°58' E 001°58'1212.0
2014-Oct-02 00:33N 40°47' E 001°51'1212.2
2014-Oct-01 23:33N 40°36' E 001°44'1212.4
2014-Oct-01 22:33N 40°25' E 001°37'1312.6
2014-Oct-01 21:33N 40°14' E 001°29'1413.4
2014-Oct-01 20:33N 40°02' E 001°21'1413.2
2014-Oct-01 19:28N 39°50' E 001°13'14913.7
2014-Oct-01 08:33N 37°41' W 000°24'1816.5
2014-Oct-01 07:27N 37°27' W 000°39'1516.6
2014-Oct-01 06:33N 37°17' W 000°53'  
2014-Sep-26 16:20N 32°15' W 016°49'1418.2
2014-Sep-26 15:34N 32°29' W 016°51'10 9.9
2014-Sep-26 14:33N 32°39' W 016°55'0 0.0
2014-Sep-26 13:33N 32°39' W 016°55'0 0.0
2014-Sep-26 12:32N 32°39' W 016°55'0 0.0
2014-Sep-26 11:32N 32°39' W 016°55'0 0.0
2014-Sep-26 10:32N 32°39' W 016°55'0 0.0
2014-Sep-26 09:32N 32°39' W 016°55'0 0.0
2014-Sep-26 08:32N 32°39' W 016°55'0 0.0
2014-Sep-26 07:32N 32°39' W 016°55'0 0.0
2014-Sep-26 06:29N 32°39' W 016°55'3 3.1
2014-Sep-26 05:34N 32°37' W 016°52'  
2014-Sep-23 22:27N 37°24' W 000°49'1819.7
2014-Sep-23 21:33N 37°35' W 000°32'15519.0
2014-Sep-23 13:24N 39°29' E 001°42'2018.5
2014-Sep-23 12:18N 39°43' E 002°01'1418.4
2014-Sep-23 11:33N 39°52' E 002°15'1818.3
2014-Sep-23 10:33N 40°04' E 002°33'1918.6
2014-Sep-23 09:33N 40°16' E 002°51'1919.3
2014-Sep-23 08:33N 40°29' E 003°10'1919.2
2014-Sep-23 07:33N 40°42' E 003°29'17118.7
2014-Sep-22 22:24N 42°36' E 006°19'1719.6
2014-Sep-22 21:33N 42°47' E 006°36'2020.2
2014-Sep-22 20:34N 43°01' E 006°56'6519.7
2014-Sep-22 17:16N 43°44' E 008°03'1419.3
2014-Sep-22 16:33N 43°53' E 008°17'1919.1
2014-Sep-22 15:33N 44°06' E 008°37'1919.2
2014-Sep-22 14:33N 44°18' E 008°57'6 5.7
2014-Sep-22 13:25N 44°25' E 008°55'0 0.0
2014-Sep-22 12:31N 44°25' E 008°55'0 0.0
2014-Sep-22 11:31N 44°25' E 008°55'0 0.0
2014-Sep-22 10:13N 44°25' E 008°55'0 0.0
2014-Sep-22 09:13N 44°25' E 008°55'0 0.0
2014-Sep-22 08:13N 44°25' E 008°55'0 0.0
2014-Sep-22 07:31N 44°25' E 008°55'2 2.1
2014-Sep-22 06:34N 44°23' E 008°57'1413.6
2014-Sep-22 05:33N 44°11' E 009°06'2020.0
2014-Sep-22 04:33N 43°53' E 009°19'2019.6
2014-Sep-22 03:33N 43°36' E 009°31'  

Dump ship's entire track history